Tracy, Minnesota
Current Conditions -  °F | °C
As of 1:12 AM on Saturday 20 Dec 2014 (Local Time) from KTKC Reporting Station
Haze Haze  
Wind Chill: 24°   Ceiling: 900
Heat Index: 31°   Visibility: 5mi
Dew Point: 29°   Wind: 8mph
Humidity: 91%   Direction: 190°S
Pressure: 30.07"   Gusts: NA
Location:  44.23°N, 95.62°W
Report Text: KTKC 200712Z AUTO 19007KT 5SM BR OVC009 00/M02 A3007 RMK AO2 T10031016
Loading
Personal Weather Stations






























Interactive Weather Map New forecast layout! Learn more

10-Day Weather Forecast

Advertisements
Track Severe Weather on mobile